sensor_id;sensor_type;location;lat;lon;timestamp;temperature;humidity
25214;DHT22;13160;51.834;4.706;2023-03-13T00:01:20;10.60;99.90
25214;DHT22;13160;51.834;4.706;2023-03-13T00:03:51;10.60;99.90
25214;DHT22;13160;51.834;4.706;2023-03-13T00:06:22;10.60;99.90
25214;DHT22;13160;51.834;4.706;2023-03-13T00:08:51;10.60;99.90
25214;DHT22;13160;51.834;4.706;2023-03-13T00:11:21;10.60;99.90
25214;DHT22;13160;51.834;4.706;2023-03-13T00:13:53;10.60;99.90
25214;DHT22;13160;51.834;4.706;2023-03-13T00:16:22;10.60;99.90
25214;DHT22;13160;51.834;4.706;2023-03-13T00:18:53;10.60;99.90
25214;DHT22;13160;51.834;4.706;2023-03-13T00:21:24;10.60;99.90
25214;DHT22;13160;51.834;4.706;2023-03-13T00:23:57;10.60;99.90
25214;DHT22;13160;51.834;4.706;2023-03-13T00:26:27;10.60;99.90
25214;DHT22;13160;51.834;4.706;2023-03-13T00:28:56;10.60;99.90
25214;DHT22;13160;51.834;4.706;2023-03-13T00:31:26;10.60;99.90
25214;DHT22;13160;51.834;4.706;2023-03-13T00:33:59;10.70;99.90
25214;DHT22;13160;51.834;4.706;2023-03-13T00:36:30;10.60;99.90
25214;DHT22;13160;51.834;4.706;2023-03-13T00:39:00;10.60;99.90
25214;DHT22;13160;51.834;4.706;2023-03-13T00:41:30;10.60;99.90
25214;DHT22;13160;51.834;4.706;2023-03-13T00:43:59;10.70;99.90
25214;DHT22;13160;51.834;4.706;2023-03-13T00:46:28;10.70;99.90
25214;DHT22;13160;51.834;4.706;2023-03-13T00:48:58;10.70;99.90
25214;DHT22;13160;51.834;4.706;2023-03-13T00:51:27;10.70;99.90
25214;DHT22;13160;51.834;4.706;2023-03-13T00:53:57;10.70;99.90
25214;DHT22;13160;51.834;4.706;2023-03-13T00:56:27;10.70;99.90
25214;DHT22;13160;51.834;4.706;2023-03-13T00:58:56;10.80;99.90
25214;DHT22;13160;51.834;4.706;2023-03-13T01:01:29;10.70;99.90
25214;DHT22;13160;51.834;4.706;2023-03-13T01:04:02;10.70;99.90
25214;DHT22;13160;51.834;4.706;2023-03-13T01:06:33;10.80;99.90
25214;DHT22;13160;51.834;4.706;2023-03-13T01:09:02;10.80;99.90
25214;DHT22;13160;51.834;4.706;2023-03-13T01:11:35;10.80;99.90
25214;DHT22;13160;51.834;4.706;2023-03-13T01:14:07;10.80;99.90
25214;DHT22;13160;51.834;4.706;2023-03-13T01:16:37;10.90;99.90
25214;DHT22;13160;51.834;4.706;2023-03-13T01:19:10;10.90;99.90
25214;DHT22;13160;51.834;4.706;2023-03-13T01:21:40;10.90;99.90
25214;DHT22;13160;51.834;4.706;2023-03-13T01:24:09;10.90;99.90
25214;DHT22;13160;51.834;4.706;2023-03-13T01:26:37;10.90;99.90
25214;DHT22;13160;51.834;4.706;2023-03-13T01:29:06;11.00;99.90
25214;DHT22;13160;51.834;4.706;2023-03-13T01:31:35;11.00;99.90
25214;DHT22;13160;51.834;4.706;2023-03-13T01:34:05;11.00;99.90
25214;DHT22;13160;51.834;4.706;2023-03-13T01:36:36;11.00;99.90
25214;DHT22;13160;51.834;4.706;2023-03-13T01:39:05;11.10;99.90
25214;DHT22;13160;51.834;4.706;2023-03-13T01:41:34;11.10;99.90
25214;DHT22;13160;51.834;4.706;2023-03-13T01:44:02;11.10;99.90
25214;DHT22;13160;51.834;4.706;2023-03-13T01:46:31;11.20;99.90
25214;DHT22;13160;51.834;4.706;2023-03-13T01:49:02;11.20;99.90
25214;DHT22;13160;51.834;4.706;2023-03-13T01:51:36;11.20;99.90
25214;DHT22;13160;51.834;4.706;2023-03-13T01:54:10;11.20;99.90
25214;DHT22;13160;51.834;4.706;2023-03-13T01:56:43;11.30;99.90
25214;DHT22;13160;51.834;4.706;2023-03-13T01:59:21;11.30;99.90
25214;DHT22;13160;51.834;4.706;2023-03-13T02:01:53;11.30;99.90
25214;DHT22;13160;51.834;4.706;2023-03-13T02:04:26;11.40;99.90
25214;DHT22;13160;51.834;4.706;2023-03-13T02:07:02;11.40;99.90
25214;DHT22;13160;51.834;4.706;2023-03-13T02:09:34;11.40;99.90
25214;DHT22;13160;51.834;4.706;2023-03-13T02:12:07;11.50;99.90
25214;DHT22;13160;51.834;4.706;2023-03-13T02:14:38;11.50;99.90
25214;DHT22;13160;51.834;4.706;2023-03-13T02:17:09;11.50;99.90
25214;DHT22;13160;51.834;4.706;2023-03-13T02:19:42;11.50;99.90
25214;DHT22;13160;51.834;4.706;2023-03-13T02:22:18;11.60;99.90
25214;DHT22;13160;51.834;4.706;2023-03-13T02:24:55;11.60;99.90
25214;DHT22;13160;51.834;4.706;2023-03-13T02:27:27;11.60;99.90
25214;DHT22;13160;51.834;4.706;2023-03-13T02:29:57;11.70;99.90
25214;DHT22;13160;51.834;4.706;2023-03-13T02:32:26;11.70;99.90
25214;DHT22;13160;51.834;4.706;2023-03-13T02:34:57;11.70;99.90
25214;DHT22;13160;51.834;4.706;2023-03-13T02:37:29;11.70;99.90
25214;DHT22;13160;51.834;4.706;2023-03-13T02:40:01;11.80;99.90
25214;DHT22;13160;51.834;4.706;2023-03-13T02:42:38;11.80;99.90
25214;DHT22;13160;51.834;4.706;2023-03-13T02:45:09;11.80;99.90
25214;DHT22;13160;51.834;4.706;2023-03-13T02:47:42;11.80;99.90
25214;DHT22;13160;51.834;4.706;2023-03-13T02:50:11;11.90;99.90
25214;DHT22;13160;51.834;4.706;2023-03-13T02:52:43;11.90;99.90
25214;DHT22;13160;51.834;4.706;2023-03-13T02:55:14;11.90;99.90
25214;DHT22;13160;51.834;4.706;2023-03-13T02:57:46;12.00;99.90
25214;DHT22;13160;51.834;4.706;2023-03-13T03:00:17;12.00;99.90
25214;DHT22;13160;51.834;4.706;2023-03-13T03:02:45;12.00;99.90
25214;DHT22;13160;51.834;4.706;2023-03-13T03:05:14;12.00;99.90
25214;DHT22;13160;51.834;4.706;2023-03-13T03:07:42;12.00;99.90
25214;DHT22;13160;51.834;4.706;2023-03-13T03:10:11;12.00;99.90
25214;DHT22;13160;51.834;4.706;2023-03-13T03:12:39;12.10;99.90
25214;DHT22;13160;51.834;4.706;2023-03-13T03:15:10;12.10;99.90
25214;DHT22;13160;51.834;4.706;2023-03-13T03:17:39;12.10;99.90
25214;DHT22;13160;51.834;4.706;2023-03-13T03:20:08;12.10;99.90
25214;DHT22;13160;51.834;4.706;2023-03-13T03:22:39;12.20;99.90
25214;DHT22;13160;51.834;4.706;2023-03-13T03:25:08;12.20;99.90
25214;DHT22;13160;51.834;4.706;2023-03-13T03:27:36;12.20;99.90
25214;DHT22;13160;51.834;4.706;2023-03-13T03:30:06;12.20;99.90
25214;DHT22;13160;51.834;4.706;2023-03-13T03:32:37;12.30;99.90
25214;DHT22;13160;51.834;4.706;2023-03-13T03:35:06;12.30;99.90
25214;DHT22;13160;51.834;4.706;2023-03-13T03:37:35;12.30;99.90
25214;DHT22;13160;51.834;4.706;2023-03-13T03:40:13;12.30;99.90
25214;DHT22;13160;51.834;4.706;2023-03-13T03:42:41;12.40;99.90
25214;DHT22;13160;51.834;4.706;2023-03-13T03:45:12;12.40;99.90
25214;DHT22;13160;51.834;4.706;2023-03-13T03:47:43;12.40;99.90
25214;DHT22;13160;51.834;4.706;2023-03-13T03:50:12;12.40;99.90
25214;DHT22;13160;51.834;4.706;2023-03-13T03:52:40;12.40;99.90
25214;DHT22;13160;51.834;4.706;2023-03-13T03:55:09;12.40;99.90
25214;DHT22;13160;51.834;4.706;2023-03-13T03:57:37;12.40;99.90
25214;DHT22;13160;51.834;4.706;2023-03-13T04:00:07;12.40;99.90
25214;DHT22;13160;51.834;4.706;2023-03-13T04:02:43;12.50;99.90
25214;DHT22;13160;51.834;4.706;2023-03-13T04:05:11;12.50;99.90
25214;DHT22;13160;51.834;4.706;2023-03-13T04:07:40;12.50;99.90
25214;DHT22;13160;51.834;4.706;2023-03-13T04:10:09;12.50;99.90
25214;DHT22;13160;51.834;4.706;2023-03-13T04:12:39;12.50;99.90
25214;DHT22;13160;51.834;4.706;2023-03-13T04:15:16;12.50;99.90
25214;DHT22;13160;51.834;4.706;2023-03-13T04:17:52;12.60;99.90
25214;DHT22;13160;51.834;4.706;2023-03-13T04:20:20;12.60;99.90
25214;DHT22;13160;51.834;4.706;2023-03-13T04:22:54;12.60;99.90
25214;DHT22;13160;51.834;4.706;2023-03-13T04:25:24;12.60;99.90
25214;DHT22;13160;51.834;4.706;2023-03-13T04:27:53;12.60;99.90
25214;DHT22;13160;51.834;4.706;2023-03-13T04:30:22;12.60;99.90
25214;DHT22;13160;51.834;4.706;2023-03-13T04:32:52;12.70;99.90
25214;DHT22;13160;51.834;4.706;2023-03-13T04:35:20;12.70;99.90
25214;DHT22;13160;51.834;4.706;2023-03-13T04:37:49;12.70;99.90
25214;DHT22;13160;51.834;4.706;2023-03-13T04:40:18;12.70;99.90
25214;DHT22;13160;51.834;4.706;2023-03-13T04:42:46;12.70;99.90
25214;DHT22;13160;51.834;4.706;2023-03-13T04:45:18;12.70;99.90
25214;DHT22;13160;51.834;4.706;2023-03-13T04:47:46;12.80;99.90
25214;DHT22;13160;51.834;4.706;2023-03-13T04:50:16;12.80;99.90
25214;DHT22;13160;51.834;4.706;2023-03-13T04:52:45;12.80;99.90
25214;DHT22;13160;51.834;4.706;2023-03-13T04:55:17;12.80;99.90
25214;DHT22;13160;51.834;4.706;2023-03-13T04:57:45;12.80;99.90
25214;DHT22;13160;51.834;4.706;2023-03-13T05:00:14;12.80;99.90
25214;DHT22;13160;51.834;4.706;2023-03-13T05:02:46;12.90;99.90
25214;DHT22;13160;51.834;4.706;2023-03-13T05:05:16;12.90;99.90
25214;DHT22;13160;51.834;4.706;2023-03-13T05:07:45;12.90;99.90
25214;DHT22;13160;51.834;4.706;2023-03-13T05:10:13;12.90;99.90
25214;DHT22;13160;51.834;4.706;2023-03-13T05:12:44;12.90;99.90
25214;DHT22;13160;51.834;4.706;2023-03-13T05:15:12;13.00;99.90
25214;DHT22;13160;51.834;4.706;2023-03-13T05:17:43;13.00;99.90
25214;DHT22;13160;51.834;4.706;2023-03-13T05:20:12;13.00;99.90
25214;DHT22;13160;51.834;4.706;2023-03-13T05:22:44;13.00;99.90
25214;DHT22;13160;51.834;4.706;2023-03-13T05:25:12;13.00;99.90
25214;DHT22;13160;51.834;4.706;2023-03-13T05:27:44;13.00;99.90
25214;DHT22;13160;51.834;4.706;2023-03-13T05:30:14;13.00;99.90
25214;DHT22;13160;51.834;4.706;2023-03-13T05:32:42;13.10;99.90
25214;DHT22;13160;51.834;4.706;2023-03-13T05:35:11;13.00;99.90
25214;DHT22;13160;51.834;4.706;2023-03-13T05:37:39;13.00;99.90
25214;DHT22;13160;51.834;4.706;2023-03-13T05:40:10;13.10;99.90
25214;DHT22;13160;51.834;4.706;2023-03-13T05:42:39;13.10;99.90
25214;DHT22;13160;51.834;4.706;2023-03-13T05:45:09;13.10;99.90
25214;DHT22;13160;51.834;4.706;2023-03-13T05:47:38;13.10;99.90
25214;DHT22;13160;51.834;4.706;2023-03-13T05:50:08;13.10;99.90
25214;DHT22;13160;51.834;4.706;2023-03-13T05:52:37;13.10;99.90
25214;DHT22;13160;51.834;4.706;2023-03-13T05:55:06;13.10;99.90
25214;DHT22;13160;51.834;4.706;2023-03-13T05:57:36;13.10;99.90
25214;DHT22;13160;51.834;4.706;2023-03-13T06:00:06;13.10;99.90
25214;DHT22;13160;51.834;4.706;2023-03-13T06:02:36;13.20;99.90
25214;DHT22;13160;51.834;4.706;2023-03-13T06:05:05;13.20;99.90
25214;DHT22;13160;51.834;4.706;2023-03-13T06:07:35;13.20;99.90
25214;DHT22;13160;51.834;4.706;2023-03-13T06:10:04;13.10;99.90
25214;DHT22;13160;51.834;4.706;2023-03-13T06:12:33;13.20;99.90
25214;DHT22;13160;51.834;4.706;2023-03-13T06:15:07;13.20;99.90
25214;DHT22;13160;51.834;4.706;2023-03-13T06:17:38;13.20;99.90
25214;DHT22;13160;51.834;4.706;2023-03-13T06:20:07;13.20;99.90
25214;DHT22;13160;51.834;4.706;2023-03-13T06:22:37;13.20;99.90
25214;DHT22;13160;51.834;4.706;2023-03-13T06:25:06;13.20;99.90
25214;DHT22;13160;51.834;4.706;2023-03-13T06:27:37;13.20;99.90
25214;DHT22;13160;51.834;4.706;2023-03-13T06:30:06;13.20;99.90
25214;DHT22;13160;51.834;4.706;2023-03-13T06:32:36;13.20;99.90
25214;DHT22;13160;51.834;4.706;2023-03-13T06:35:05;13.20;99.90
25214;DHT22;13160;51.834;4.706;2023-03-13T06:37:34;13.30;99.90
25214;DHT22;13160;51.834;4.706;2023-03-13T06:40:05;13.20;99.90
25214;DHT22;13160;51.834;4.706;2023-03-13T06:42:34;13.20;99.90
25214;DHT22;13160;51.834;4.706;2023-03-13T06:45:04;13.20;99.90
25214;DHT22;13160;51.834;4.706;2023-03-13T06:47:34;13.20;99.90
25214;DHT22;13160;51.834;4.706;2023-03-13T06:50:02;13.20;99.90
25214;DHT22;13160;51.834;4.706;2023-03-13T06:52:31;13.20;99.90
25214;DHT22;13160;51.834;4.706;2023-03-13T06:55:10;13.20;99.90
25214;DHT22;13160;51.834;4.706;2023-03-13T06:57:39;13.10;99.90
25214;DHT22;13160;51.834;4.706;2023-03-13T07:00:11;13.10;99.90
25214;DHT22;13160;51.834;4.706;2023-03-13T07:02:40;13.10;99.90
25214;DHT22;13160;51.834;4.706;2023-03-13T07:05:08;13.10;99.90
25214;DHT22;13160;51.834;4.706;2023-03-13T07:07:37;13.10;99.90
25214;DHT22;13160;51.834;4.706;2023-03-13T07:10:07;13.00;99.90
25214;DHT22;13160;51.834;4.706;2023-03-13T07:12:36;13.00;99.90
25214;DHT22;13160;51.834;4.706;2023-03-13T07:15:06;13.00;99.90
25214;DHT22;13160;51.834;4.706;2023-03-13T07:17:40;13.00;99.90
25214;DHT22;13160;51.834;4.706;2023-03-13T07:20:09;13.00;99.90
25214;DHT22;13160;51.834;4.706;2023-03-13T07:22:39;13.00;99.90
25214;DHT22;13160;51.834;4.706;2023-03-13T07:25:08;13.00;99.90
25214;DHT22;13160;51.834;4.706;2023-03-13T07:27:37;13.00;99.90
25214;DHT22;13160;51.834;4.706;2023-03-13T07:30:06;13.00;99.90
25214;DHT22;13160;51.834;4.706;2023-03-13T07:32:36;13.00;99.90
25214;DHT22;13160;51.834;4.706;2023-03-13T07:35:05;13.00;99.90
25214;DHT22;13160;51.834;4.706;2023-03-13T07:37:34;13.00;99.90
25214;DHT22;13160;51.834;4.706;2023-03-13T07:40:03;12.90;99.90
25214;DHT22;13160;51.834;4.706;2023-03-13T07:42:31;13.00;99.90
25214;DHT22;13160;51.834;4.706;2023-03-13T07:45:00;13.00;99.90
25214;DHT22;13160;51.834;4.706;2023-03-13T07:47:29;13.00;99.90
25214;DHT22;13160;51.834;4.706;2023-03-13T07:49:59;13.00;99.90
25214;DHT22;13160;51.834;4.706;2023-03-13T07:52:28;13.00;99.90
25214;DHT22;13160;51.834;4.706;2023-03-13T07:54:56;13.00;99.90
25214;DHT22;13160;51.834;4.706;2023-03-13T07:57:24;13.00;99.90
25214;DHT22;13160;51.834;4.706;2023-03-13T07:59:53;13.00;99.90
25214;DHT22;13160;51.834;4.706;2023-03-13T08:02:21;13.00;99.90
25214;DHT22;13160;51.834;4.706;2023-03-13T08:04:51;13.00;99.90
25214;DHT22;13160;51.834;4.706;2023-03-13T08:07:21;13.00;99.90
25214;DHT22;13160;51.834;4.706;2023-03-13T08:09:49;13.00;99.90
25214;DHT22;13160;51.834;4.706;2023-03-13T08:12:18;13.00;99.90
25214;DHT22;13160;51.834;4.706;2023-03-13T08:14:49;13.00;99.90
25214;DHT22;13160;51.834;4.706;2023-03-13T08:17:17;13.10;99.90
25214;DHT22;13160;51.834;4.706;2023-03-13T08:19:45;13.10;99.90
25214;DHT22;13160;51.834;4.706;2023-03-13T08:22:14;13.10;99.90
25214;DHT22;13160;51.834;4.706;2023-03-13T08:24:47;13.20;99.90
25214;DHT22;13160;51.834;4.706;2023-03-13T08:27:15;13.20;99.90
25214;DHT22;13160;51.834;4.706;2023-03-13T08:29:44;13.20;99.90
25214;DHT22;13160;51.834;4.706;2023-03-13T08:32:12;13.30;99.90
25214;DHT22;13160;51.834;4.706;2023-03-13T08:34:41;13.30;99.90
25214;DHT22;13160;51.834;4.706;2023-03-13T08:37:09;13.30;99.90
25214;DHT22;13160;51.834;4.706;2023-03-13T08:39:44;13.30;99.90
25214;DHT22;13160;51.834;4.706;2023-03-13T08:42:17;13.40;99.90
25214;DHT22;13160;51.834;4.706;2023-03-13T08:44:45;13.40;99.90
25214;DHT22;13160;51.834;4.706;2023-03-13T08:47:14;13.40;99.90
25214;DHT22;13160;51.834;4.706;2023-03-13T08:49:47;13.40;99.90
25214;DHT22;13160;51.834;4.706;2023-03-13T08:52:21;13.50;99.90
25214;DHT22;13160;51.834;4.706;2023-03-13T08:54:50;13.50;99.90
25214;DHT22;13160;51.834;4.706;2023-03-13T08:57:20;13.50;99.90
25214;DHT22;13160;51.834;4.706;2023-03-13T08:59:48;13.60;99.90
25214;DHT22;13160;51.834;4.706;2023-03-13T09:02:17;13.60;99.90
25214;DHT22;13160;51.834;4.706;2023-03-13T09:04:47;13.70;99.90
25214;DHT22;13160;51.834;4.706;2023-03-13T09:07:18;13.70;99.90
25214;DHT22;13160;51.834;4.706;2023-03-13T09:09:46;13.80;99.90
25214;DHT22;13160;51.834;4.706;2023-03-13T09:12:17;13.90;99.90
25214;DHT22;13160;51.834;4.706;2023-03-13T09:14:58;14.00;99.90
25214;DHT22;13160;51.834;4.706;2023-03-13T09:17:26;14.10;99.90
25214;DHT22;13160;51.834;4.706;2023-03-13T09:19:55;14.10;99.90
25214;DHT22;13160;51.834;4.706;2023-03-13T09:22:26;14.20;99.90
25214;DHT22;13160;51.834;4.706;2023-03-13T09:24:55;14.30;99.90
25214;DHT22;13160;51.834;4.706;2023-03-13T09:27:23;14.40;99.90
25214;DHT22;13160;51.834;4.706;2023-03-13T09:29:53;14.40;99.90
25214;DHT22;13160;51.834;4.706;2023-03-13T09:32:24;14.50;99.90
25214;DHT22;13160;51.834;4.706;2023-03-13T09:34:52;14.50;99.90
25214;DHT22;13160;51.834;4.706;2023-03-13T09:37:21;14.60;99.90
25214;DHT22;13160;51.834;4.706;2023-03-13T09:39:50;14.60;99.90
25214;DHT22;13160;51.834;4.706;2023-03-13T09:42:20;14.70;99.90
25214;DHT22;13160;51.834;4.706;2023-03-13T09:44:54;14.80;99.90
25214;DHT22;13160;51.834;4.706;2023-03-13T09:47:31;14.90;99.90
25214;DHT22;13160;51.834;4.706;2023-03-13T09:50:11;15.00;99.90
25214;DHT22;13160;51.834;4.706;2023-03-13T09:52:41;15.10;99.90
25214;DHT22;13160;51.834;4.706;2023-03-13T09:55:16;15.20;99.90
25214;DHT22;13160;51.834;4.706;2023-03-13T09:57:51;15.20;99.90
25214;DHT22;13160;51.834;4.706;2023-03-13T10:00:26;15.20;99.90
25214;DHT22;13160;51.834;4.706;2023-03-13T10:03:04;15.30;99.90
25214;DHT22;13160;51.834;4.706;2023-03-13T10:05:35;15.30;99.90
25214;DHT22;13160;51.834;4.706;2023-03-13T10:08:11;15.30;99.90
25214;DHT22;13160;51.834;4.706;2023-03-13T10:10:46;15.40;99.90
25214;DHT22;13160;51.834;4.706;2023-03-13T10:13:30;15.40;99.90
25214;DHT22;13160;51.834;4.706;2023-03-13T10:16:01;15.40;99.90
25214;DHT22;13160;51.834;4.706;2023-03-13T10:18:38;15.40;99.90
25214;DHT22;13160;51.834;4.706;2023-03-13T10:21:15;15.40;99.90
25214;DHT22;13160;51.834;4.706;2023-03-13T10:23:49;15.40;99.90
25214;DHT22;13160;51.834;4.706;2023-03-13T10:26:23;15.40;99.90
25214;DHT22;13160;51.834;4.706;2023-03-13T10:28:54;15.40;99.90
25214;DHT22;13160;51.834;4.706;2023-03-13T10:31:27;15.40;99.90
25214;DHT22;13160;51.834;4.706;2023-03-13T10:34:07;15.50;99.90
25214;DHT22;13160;51.834;4.706;2023-03-13T10:36:40;15.50;99.90
25214;DHT22;13160;51.834;4.706;2023-03-13T10:39:15;15.60;99.90
25214;DHT22;13160;51.834;4.706;2023-03-13T10:41:48;15.60;99.90
25214;DHT22;13160;51.834;4.706;2023-03-13T10:44:18;15.70;99.90
25214;DHT22;13160;51.834;4.706;2023-03-13T10:46:49;15.70;99.90
25214;DHT22;13160;51.834;4.706;2023-03-13T10:49:21;15.80;99.90
25214;DHT22;13160;51.834;4.706;2023-03-13T10:51:55;15.80;99.90
25214;DHT22;13160;51.834;4.706;2023-03-13T10:54:28;15.90;99.90
25214;DHT22;13160;51.834;4.706;2023-03-13T10:57:25;16.00;99.90
25214;DHT22;13160;51.834;4.706;2023-03-13T10:59:57;16.00;99.90
25214;DHT22;13160;51.834;4.706;2023-03-13T11:02:31;16.00;99.90
25214;DHT22;13160;51.834;4.706;2023-03-13T11:05:30;16.20;99.90
25214;DHT22;13160;51.834;4.706;2023-03-13T11:08:11;16.20;99.90
25214;DHT22;13160;51.834;4.706;2023-03-13T11:10:52;16.30;99.90
25214;DHT22;13160;51.834;4.706;2023-03-13T11:13:32;16.40;99.90
25214;DHT22;13160;51.834;4.706;2023-03-13T11:19:09;16.60;99.90
25214;DHT22;13160;51.834;4.706;2023-03-13T11:22:11;16.60;99.90
25214;DHT22;13160;51.834;4.706;2023-03-13T11:24:53;16.70;99.90
25214;DHT22;13160;51.834;4.706;2023-03-13T11:27:30;16.80;99.90
25214;DHT22;13160;51.834;4.706;2023-03-13T11:30:18;16.80;99.90
25214;DHT22;13160;51.834;4.706;2023-03-13T11:32:54;17.00;99.90
25214;DHT22;13160;51.834;4.706;2023-03-13T11:35:36;17.10;99.90
25214;DHT22;13160;51.834;4.706;2023-03-13T11:38:18;17.20;99.90
25214;DHT22;13160;51.834;4.706;2023-03-13T11:41:01;17.30;99.90
25214;DHT22;13160;51.834;4.706;2023-03-13T11:43:44;17.30;99.90
25214;DHT22;13160;51.834;4.706;2023-03-13T11:46:42;17.40;99.90
25214;DHT22;13160;51.834;4.706;2023-03-13T11:49:39;17.40;99.90
25214;DHT22;13160;51.834;4.706;2023-03-13T11:52:27;17.40;99.90
25214;DHT22;13160;51.834;4.706;2023-03-13T12:01:08;17.50;99.90
25214;DHT22;13160;51.834;4.706;2023-03-13T12:03:43;17.50;99.90
25214;DHT22;13160;51.834;4.706;2023-03-13T12:06:25;17.50;99.90
25214;DHT22;13160;51.834;4.706;2023-03-13T12:09:02;17.60;99.90
25214;DHT22;13160;51.834;4.706;2023-03-13T12:11:39;17.60;99.90
25214;DHT22;13160;51.834;4.706;2023-03-13T12:14:12;17.60;99.90
25214;DHT22;13160;51.834;4.706;2023-03-13T12:16:46;17.60;99.90
25214;DHT22;13160;51.834;4.706;2023-03-13T12:19:20;17.60;99.90
25214;DHT22;13160;51.834;4.706;2023-03-13T12:21:56;17.60;99.90
25214;DHT22;13160;51.834;4.706;2023-03-13T12:24:28;17.60;99.90
25214;DHT22;13160;51.834;4.706;2023-03-13T12:27:10;17.60;99.90
25214;DHT22;13160;51.834;4.706;2023-03-13T12:29:47;17.50;99.90
25214;DHT22;13160;51.834;4.706;2023-03-13T12:32:26;17.60;99.90
25214;DHT22;13160;51.834;4.706;2023-03-13T12:35:13;17.60;99.90
25214;DHT22;13160;51.834;4.706;2023-03-13T12:37:56;17.60;99.90
25214;DHT22;13160;51.834;4.706;2023-03-13T12:40:34;17.60;99.90
25214;DHT22;13160;51.834;4.706;2023-03-13T12:43:11;17.70;99.90
25214;DHT22;13160;51.834;4.706;2023-03-13T12:46:02;17.70;99.90
25214;DHT22;13160;51.834;4.706;2023-03-13T12:48:52;17.70;99.90
25214;DHT22;13160;51.834;4.706;2023-03-13T12:51:36;17.70;99.90
25214;DHT22;13160;51.834;4.706;2023-03-13T12:57:26;17.60;99.90
25214;DHT22;13160;51.834;4.706;2023-03-13T13:00:13;17.60;99.90
25214;DHT22;13160;51.834;4.706;2023-03-13T13:02:44;17.50;99.90
25214;DHT22;13160;51.834;4.706;2023-03-13T13:05:18;17.50;99.90
25214;DHT22;13160;51.834;4.706;2023-03-13T13:07:52;17.50;99.90
25214;DHT22;13160;51.834;4.706;2023-03-13T13:10:24;17.50;99.90
25214;DHT22;13160;51.834;4.706;2023-03-13T13:13:24;17.50;99.90
25214;DHT22;13160;51.834;4.706;2023-03-13T13:16:03;17.50;99.90
25214;DHT22;13160;51.834;4.706;2023-03-13T13:18:34;17.50;99.90
25214;DHT22;13160;51.834;4.706;2023-03-13T13:21:18;17.50;99.90
25214;DHT22;13160;51.834;4.706;2023-03-13T13:23:50;17.50;99.90
25214;DHT22;13160;51.834;4.706;2023-03-13T13:26:47;17.50;99.90
25214;DHT22;13160;51.834;4.706;2023-03-13T13:32:44;17.50;99.60
25214;DHT22;13160;51.834;4.706;2023-03-13T13:35:31;17.40;99.90
25214;DHT22;13160;51.834;4.706;2023-03-13T13:38:26;17.50;99.80
25214;DHT22;13160;51.834;4.706;2023-03-13T13:41:36;17.50;99.50
25214;DHT22;13160;51.834;4.706;2023-03-13T13:44:24;17.50;99.10
25214;DHT22;13160;51.834;4.706;2023-03-13T13:46:57;17.50;99.20
25214;DHT22;13160;51.834;4.706;2023-03-13T13:49:53;17.50;99.00
25214;DHT22;13160;51.834;4.706;2023-03-13T13:52:34;17.50;98.60
25214;DHT22;13160;51.834;4.706;2023-03-13T13:55:40;17.50;98.20
25214;DHT22;13160;51.834;4.706;2023-03-13T13:58:16;17.40;98.60
25214;DHT22;13160;51.834;4.706;2023-03-13T14:00:47;17.30;98.80
25214;DHT22;13160;51.834;4.706;2023-03-13T14:03:21;17.30;98.70
25214;DHT22;13160;51.834;4.706;2023-03-13T14:05:54;17.30;98.60
25214;DHT22;13160;51.834;4.706;2023-03-13T14:08:27;17.30;98.50
25214;DHT22;13160;51.834;4.706;2023-03-13T14:11:08;17.30;98.30
25214;DHT22;13160;51.834;4.706;2023-03-13T14:14:09;17.30;98.30
25214;DHT22;13160;51.834;4.706;2023-03-13T14:16:39;17.30;98.30
25214;DHT22;13160;51.834;4.706;2023-03-13T14:19:23;17.20;98.30
25214;DHT22;13160;51.834;4.706;2023-03-13T14:22:02;17.20;98.30
25214;DHT22;13160;51.834;4.706;2023-03-13T14:24:36;17.20;98.30
25214;DHT22;13160;51.834;4.706;2023-03-13T14:27:14;17.10;98.20
25214;DHT22;13160;51.834;4.706;2023-03-13T14:30:01;17.10;98.30
25214;DHT22;13160;51.834;4.706;2023-03-13T14:32:29;17.00;98.60
25214;DHT22;13160;51.834;4.706;2023-03-13T14:34:58;17.00;98.40
25214;DHT22;13160;51.834;4.706;2023-03-13T14:37:36;17.00;98.50
25214;DHT22;13160;51.834;4.706;2023-03-13T14:40:06;16.90;98.40
25214;DHT22;13160;51.834;4.706;2023-03-13T14:42:42;16.90;98.60
25214;DHT22;13160;51.834;4.706;2023-03-13T14:45:15;16.90;98.30
25214;DHT22;13160;51.834;4.706;2023-03-13T14:47:49;16.90;98.50
25214;DHT22;13160;51.834;4.706;2023-03-13T14:50:21;16.90;98.60
25214;DHT22;13160;51.834;4.706;2023-03-13T14:53:11;16.80;98.60
25214;DHT22;13160;51.834;4.706;2023-03-13T14:55:40;16.80;98.80
25214;DHT22;13160;51.834;4.706;2023-03-13T14:58:25;16.80;98.70
25214;DHT22;13160;51.834;4.706;2023-03-13T15:00:55;16.80;99.00
25214;DHT22;13160;51.834;4.706;2023-03-13T15:03:29;16.80;98.80
25214;DHT22;13160;51.834;4.706;2023-03-13T15:06:13;16.70;98.70
25214;DHT22;13160;51.834;4.706;2023-03-13T15:08:46;16.70;98.70
25214;DHT22;13160;51.834;4.706;2023-03-13T15:11:25;16.70;98.60
25214;DHT22;13160;51.834;4.706;2023-03-13T15:13:55;16.70;98.80
25214;DHT22;13160;51.834;4.706;2023-03-13T15:16:24;16.60;98.70
25214;DHT22;13160;51.834;4.706;2023-03-13T15:18:55;16.60;98.70
25214;DHT22;13160;51.834;4.706;2023-03-13T15:21:30;16.60;98.80
25214;DHT22;13160;51.834;4.706;2023-03-13T15:24:10;16.50;98.80
25214;DHT22;13160;51.834;4.706;2023-03-13T15:26:39;16.50;98.90
25214;DHT22;13160;51.834;4.706;2023-03-13T15:29:08;16.50;99.10
25214;DHT22;13160;51.834;4.706;2023-03-13T15:31:37;16.50;99.20
25214;DHT22;13160;51.834;4.706;2023-03-13T15:34:09;16.40;99.20
25214;DHT22;13160;51.834;4.706;2023-03-13T15:36:39;16.40;99.30
25214;DHT22;13160;51.834;4.706;2023-03-13T15:39:13;16.40;98.90
25214;DHT22;13160;51.834;4.706;2023-03-13T15:41:45;16.30;99.20
25214;DHT22;13160;51.834;4.706;2023-03-13T15:44:16;16.30;99.30
25214;DHT22;13160;51.834;4.706;2023-03-13T15:46:45;16.30;99.20
25214;DHT22;13160;51.834;4.706;2023-03-13T15:49:13;16.20;99.30
25214;DHT22;13160;51.834;4.706;2023-03-13T15:51:44;16.20;99.30
25214;DHT22;13160;51.834;4.706;2023-03-13T15:54:14;16.20;99.40
25214;DHT22;13160;51.834;4.706;2023-03-13T15:56:43;16.10;99.50
25214;DHT22;13160;51.834;4.706;2023-03-13T15:59:14;16.10;99.70
25214;DHT22;13160;51.834;4.706;2023-03-13T16:01:46;16.10;99.70
25214;DHT22;13160;51.834;4.706;2023-03-13T16:04:17;16.00;99.90
25214;DHT22;13160;51.834;4.706;2023-03-13T16:06:45;16.00;99.90
25214;DHT22;13160;51.834;4.706;2023-03-13T16:09:16;16.00;99.90
25214;DHT22;13160;51.834;4.706;2023-03-13T16:11:45;15.90;99.90
25214;DHT22;13160;51.834;4.706;2023-03-13T16:14:13;15.90;99.90
25214;DHT22;13160;51.834;4.706;2023-03-13T16:16:42;15.90;99.90
25214;DHT22;13160;51.834;4.706;2023-03-13T16:19:11;15.90;99.90
25214;DHT22;13160;51.834;4.706;2023-03-13T16:21:39;15.80;99.90